sensor_id;sensor_type;location;lat;lon;timestamp;pressure;altitude;pressure_sealevel;temperature
45034;BMP280;30771;47.988;-4.186;2022-09-13T06:02:05;99325.38;;;20.94
45034;BMP280;30771;47.988;-4.186;2022-09-13T06:04:30;99323.00;;;20.92
45034;BMP280;30771;47.988;-4.186;2022-09-13T06:06:55;99326.38;;;20.98
45034;BMP280;30771;47.988;-4.186;2022-09-13T06:09:21;99317.25;;;20.99
45034;BMP280;30771;47.988;-4.186;2022-09-13T06:11:46;99320.41;;;21.01
45034;BMP280;30771;47.988;-4.186;2022-09-13T06:14:11;99325.50;;;21.02
45034;BMP280;30771;47.988;-4.186;2022-09-13T06:16:36;99319.03;;;21.03
45034;BMP280;30771;47.988;-4.186;2022-09-13T06:19:01;99316.81;;;21.05
45034;BMP280;30771;47.988;-4.186;2022-09-13T06:21:27;99322.72;;;21.07
45034;BMP280;30771;47.988;-4.186;2022-09-13T06:23:52;99319.69;;;21.09
45034;BMP280;30771;47.988;-4.186;2022-09-13T06:26:19;99325.56;;;21.11
45034;BMP280;30771;47.988;-4.186;2022-09-13T06:28:48;99321.78;;;21.12
45034;BMP280;30771;47.988;-4.186;2022-09-13T06:31:14;99308.88;;;21.14
45034;BMP280;30771;47.988;-4.186;2022-09-13T06:33:41;99312.03;;;21.16
45034;BMP280;30771;47.988;-4.186;2022-09-13T06:36:10;99312.53;;;21.18
45034;BMP280;30771;47.988;-4.186;2022-09-13T06:38:35;99318.34;;;21.20
45034;BMP280;30771;47.988;-4.186;2022-09-13T06:43:29;99323.59;;;21.25
45034;BMP280;30771;47.988;-4.186;2022-09-13T06:45:58;99331.38;;;21.26
45034;BMP280;30771;47.988;-4.186;2022-09-13T06:48:23;99329.97;;;21.29
45034;BMP280;30771;47.988;-4.186;2022-09-13T06:50:48;99336.13;;;21.29
45034;BMP280;30771;47.988;-4.186;2022-09-13T06:53:13;99344.03;;;21.34
45034;BMP280;30771;47.988;-4.186;2022-09-13T06:55:38;99336.00;;;21.34
45034;BMP280;30771;47.988;-4.186;2022-09-13T06:58:03;99347.09;;;21.41
45034;BMP280;30771;47.988;-4.186;2022-09-13T07:00:29;99345.38;;;21.45
45034;BMP280;30771;47.988;-4.186;2022-09-13T07:02:54;99352.81;;;21.48
45034;BMP280;30771;47.988;-4.186;2022-09-13T07:05:19;99352.50;;;21.50
45034;BMP280;30771;47.988;-4.186;2022-09-13T07:07:44;99356.44;;;21.52
45034;BMP280;30771;47.988;-4.186;2022-09-13T07:10:10;99356.44;;;21.52
45034;BMP280;30771;47.988;-4.186;2022-09-13T07:12:35;99355.38;;;21.53
45034;BMP280;30771;47.988;-4.186;2022-09-13T07:15:01;99359.63;;;21.54
45034;BMP280;30771;47.988;-4.186;2022-09-13T07:17:26;99357.44;;;21.56
45034;BMP280;30771;47.988;-4.186;2022-09-13T07:19:51;99353.34;;;21.59
45034;BMP280;30771;47.988;-4.186;2022-09-13T07:22:16;99350.38;;;21.60
45034;BMP280;30771;47.988;-4.186;2022-09-13T07:24:42;99352.44;;;21.63
45034;BMP280;30771;47.988;-4.186;2022-09-13T07:27:07;99351.53;;;21.68
45034;BMP280;30771;47.988;-4.186;2022-09-13T07:29:32;99360.53;;;21.72
45034;BMP280;30771;47.988;-4.186;2022-09-13T07:31:57;99352.38;;;21.77
45034;BMP280;30771;47.988;-4.186;2022-09-13T07:34:23;99351.16;;;21.83
45034;BMP280;30771;47.988;-4.186;2022-09-13T07:36:49;99351.53;;;21.90
45034;BMP280;30771;47.988;-4.186;2022-09-13T07:39:14;99364.94;;;21.99
45034;BMP280;30771;47.988;-4.186;2022-09-13T07:41:40;99366.91;;;22.07
45034;BMP280;30771;47.988;-4.186;2022-09-13T07:44:05;99367.25;;;22.14
45034;BMP280;30771;47.988;-4.186;2022-09-13T07:46:31;99373.44;;;22.23
45034;BMP280;30771;47.988;-4.186;2022-09-13T07:48:56;99378.53;;;22.33
45034;BMP280;30771;47.988;-4.186;2022-09-13T07:51:23;99370.53;;;22.41
45034;BMP280;30771;47.988;-4.186;2022-09-13T07:53:49;99369.78;;;22.49
45034;BMP280;30771;47.988;-4.186;2022-09-13T07:56:18;99369.00;;;22.57
45034;BMP280;30771;47.988;-4.186;2022-09-13T07:58:44;99374.44;;;22.66
45034;BMP280;30771;47.988;-4.186;2022-09-13T08:01:11;99369.41;;;22.73
45034;BMP280;30771;47.988;-4.186;2022-09-13T08:03:37;99374.75;;;22.81
45034;BMP280;30771;47.988;-4.186;2022-09-13T08:06:03;99373.03;;;22.94
45034;BMP280;30771;47.988;-4.186;2022-09-13T08:08:28;99380.50;;;23.05
45034;BMP280;30771;47.988;-4.186;2022-09-13T08:10:53;99377.53;;;23.15
45034;BMP280;30771;47.988;-4.186;2022-09-13T08:13:19;99382.53;;;23.25
45034;BMP280;30771;47.988;-4.186;2022-09-13T08:15:44;99386.34;;;23.33
45034;BMP280;30771;47.988;-4.186;2022-09-13T08:18:09;99386.06;;;23.43
45034;BMP280;30771;47.988;-4.186;2022-09-13T08:20:35;99378.31;;;23.50
45034;BMP280;30771;47.988;-4.186;2022-09-13T08:23:00;99376.22;;;23.55
45034;BMP280;30771;47.988;-4.186;2022-09-13T08:25:25;99381.91;;;23.62
45034;BMP280;30771;47.988;-4.186;2022-09-13T08:27:50;99369.56;;;23.70
45034;BMP280;30771;47.988;-4.186;2022-09-13T08:30:15;99378.75;;;23.77
45034;BMP280;30771;47.988;-4.186;2022-09-13T08:32:41;99376.66;;;23.83
45034;BMP280;30771;47.988;-4.186;2022-09-13T08:35:06;99383.47;;;23.89
45034;BMP280;30771;47.988;-4.186;2022-09-13T08:37:31;99382.97;;;23.96
45034;BMP280;30771;47.988;-4.186;2022-09-13T08:39:56;99382.31;;;23.99
45034;BMP280;30771;47.988;-4.186;2022-09-13T08:44:51;99400.22;;;24.03
45034;BMP280;30771;47.988;-4.186;2022-09-13T08:47:23;99403.34;;;24.05
45034;BMP280;30771;47.988;-4.186;2022-09-13T08:49:53;99409.66;;;24.09
45034;BMP280;30771;47.988;-4.186;2022-09-13T08:54:46;99412.00;;;24.19
45034;BMP280;30771;47.988;-4.186;2022-09-13T09:05:02;99409.38;;;24.48
45034;BMP280;30771;47.988;-4.186;2022-09-13T09:07:33;99406.63;;;24.57
45034;BMP280;30771;47.988;-4.186;2022-09-13T09:12:32;99404.16;;;24.72
45034;BMP280;30771;47.988;-4.186;2022-09-13T09:17:45;99400.25;;;24.90
45034;BMP280;30771;47.988;-4.186;2022-09-13T09:22:43;99399.41;;;24.98
45034;BMP280;30771;47.988;-4.186;2022-09-13T09:25:09;99404.91;;;25.02
45034;BMP280;30771;47.988;-4.186;2022-09-13T09:27:35;99416.28;;;25.07
45034;BMP280;30771;47.988;-4.186;2022-09-13T09:30:00;99410.34;;;25.14
45034;BMP280;30771;47.988;-4.186;2022-09-13T09:32:59;99412.22;;;25.22
45034;BMP280;30771;47.988;-4.186;2022-09-13T09:40:31;99406.34;;;25.40
45034;BMP280;30771;47.988;-4.186;2022-09-13T09:42:57;99415.84;;;25.46
45034;BMP280;30771;47.988;-4.186;2022-09-13T09:45:24;99403.69;;;25.52
45034;BMP280;30771;47.988;-4.186;2022-09-13T09:47:50;99416.44;;;25.64
45034;BMP280;30771;47.988;-4.186;2022-09-13T09:50:17;99411.00;;;25.84
45034;BMP280;30771;47.988;-4.186;2022-09-13T09:57:58;99396.34;;;26.30
45034;BMP280;30771;47.988;-4.186;2022-09-13T10:00:25;99386.88;;;26.36
45034;BMP280;30771;47.988;-4.186;2022-09-13T10:02:52;99395.91;;;26.40
45034;BMP280;30771;47.988;-4.186;2022-09-13T10:05:18;99389.56;;;26.48
45034;BMP280;30771;47.988;-4.186;2022-09-13T10:07:49;99382.47;;;26.55
45034;BMP280;30771;47.988;-4.186;2022-09-13T10:10:28;99382.16;;;26.69
45034;BMP280;30771;47.988;-4.186;2022-09-13T10:12:54;99380.97;;;26.82
45034;BMP280;30771;47.988;-4.186;2022-09-13T10:15:22;99386.59;;;26.89
45034;BMP280;30771;47.988;-4.186;2022-09-13T10:18:05;99389.28;;;27.01
45034;BMP280;30771;47.988;-4.186;2022-09-13T10:20:31;99386.84;;;27.12
45034;BMP280;30771;47.988;-4.186;2022-09-13T10:25:41;99382.66;;;27.14
45034;BMP280;30771;47.988;-4.186;2022-09-13T10:28:09;99389.44;;;27.08
45034;BMP280;30771;47.988;-4.186;2022-09-13T10:30:36;99382.50;;;27.07
45034;BMP280;30771;47.988;-4.186;2022-09-13T10:33:02;99380.56;;;27.08
45034;BMP280;30771;47.988;-4.186;2022-09-13T10:35:28;99389.53;;;27.12
45034;BMP280;30771;47.988;-4.186;2022-09-13T10:37:53;99390.19;;;27.21
45034;BMP280;30771;47.988;-4.186;2022-09-13T10:40:26;99380.09;;;27.33
45034;BMP280;30771;47.988;-4.186;2022-09-13T10:42:53;99388.53;;;27.44
45034;BMP280;30771;47.988;-4.186;2022-09-13T10:45:23;99373.84;;;27.60
45034;BMP280;30771;47.988;-4.186;2022-09-13T10:47:50;99382.47;;;27.78
45034;BMP280;30771;47.988;-4.186;2022-09-13T10:50:22;99373.09;;;27.91
45034;BMP280;30771;47.988;-4.186;2022-09-13T10:52:51;99368.88;;;28.09
45034;BMP280;30771;47.988;-4.186;2022-09-13T10:57:42;99361.97;;;28.27
45034;BMP280;30771;47.988;-4.186;2022-09-13T11:00:08;99357.88;;;28.33
45034;BMP280;30771;47.988;-4.186;2022-09-13T11:10:45;99353.72;;;28.04
45034;BMP280;30771;47.988;-4.186;2022-09-13T11:13:16;99345.34;;;27.94
45034;BMP280;30771;47.988;-4.186;2022-09-13T11:18:18;99336.13;;;27.79
45034;BMP280;30771;47.988;-4.186;2022-09-13T11:20:51;99336.38;;;27.74
45034;BMP280;30771;47.988;-4.186;2022-09-13T11:25:53;99336.97;;;27.68
45034;BMP280;30771;47.988;-4.186;2022-09-13T11:39:08;99334.28;;;27.83
45034;BMP280;30771;47.988;-4.186;2022-09-13T11:57:09;99315.53;;;28.09
45034;BMP280;30771;47.988;-4.186;2022-09-13T11:59:49;99307.81;;;28.08
45034;BMP280;30771;47.988;-4.186;2022-09-13T12:05:53;99307.19;;;28.14
45034;BMP280;30771;47.988;-4.186;2022-09-13T12:08:00;99307.59;;;28.16
45034;BMP280;30771;47.988;-4.186;2022-09-13T12:11:12;99305.41;;;28.22
45034;BMP280;30771;47.988;-4.186;2022-09-13T12:13:21;99295.47;;;28.26
45034;BMP280;30771;47.988;-4.186;2022-09-13T12:15:46;99300.94;;;28.29
45034;BMP280;30771;47.988;-4.186;2022-09-13T12:18:16;99301.34;;;28.31
45034;BMP280;30771;47.988;-4.186;2022-09-13T12:20:46;99296.66;;;28.28
45034;BMP280;30771;47.988;-4.186;2022-09-13T12:23:14;99292.28;;;28.24
45034;BMP280;30771;47.988;-4.186;2022-09-13T12:28:21;99277.28;;;28.26
45034;BMP280;30771;47.988;-4.186;2022-09-13T12:30:58;99272.78;;;28.34
45034;BMP280;30771;47.988;-4.186;2022-09-13T12:33:24;99268.38;;;28.45
45034;BMP280;30771;47.988;-4.186;2022-09-13T12:35:53;99265.81;;;28.52
45034;BMP280;30771;47.988;-4.186;2022-09-13T12:43:29;99266.06;;;28.66
45034;BMP280;30771;47.988;-4.186;2022-09-13T12:46:13;99261.44;;;28.66
45034;BMP280;30771;47.988;-4.186;2022-09-13T12:48:49;99262.25;;;28.67
45034;BMP280;30771;47.988;-4.186;2022-09-13T12:51:25;99260.25;;;28.64
45034;BMP280;30771;47.988;-4.186;2022-09-13T12:59:08;99237.63;;;28.56
45034;BMP280;30771;47.988;-4.186;2022-09-13T13:01:43;99234.56;;;28.58
45034;BMP280;30771;47.988;-4.186;2022-09-13T13:04:14;99238.50;;;28.60
45034;BMP280;30771;47.988;-4.186;2022-09-13T13:06:51;99228.16;;;28.66
45034;BMP280;30771;47.988;-4.186;2022-09-13T13:09:33;99223.94;;;28.68
45034;BMP280;30771;47.988;-4.186;2022-09-13T13:12:00;99220.25;;;28.76
45034;BMP280;30771;47.988;-4.186;2022-09-13T13:19:46;99212.00;;;29.14
45034;BMP280;30771;47.988;-4.186;2022-09-13T13:24:55;99212.41;;;29.16
45034;BMP280;30771;47.988;-4.186;2022-09-13T13:27:34;99221.88;;;29.03
45034;BMP280;30771;47.988;-4.186;2022-09-13T13:35:28;99224.66;;;28.84
45034;BMP280;30771;47.988;-4.186;2022-09-13T13:37:53;99220.56;;;28.75
45034;BMP280;30771;47.988;-4.186;2022-09-13T13:40:20;99219.38;;;28.72
45034;BMP280;30771;47.988;-4.186;2022-09-13T13:42:45;99222.88;;;28.73
45034;BMP280;30771;47.988;-4.186;2022-09-13T13:45:28;99218.28;;;28.77
45034;BMP280;30771;47.988;-4.186;2022-09-13T13:47:55;99218.84;;;28.86
45034;BMP280;30771;47.988;-4.186;2022-09-13T13:50:29;99222.69;;;28.85
45034;BMP280;30771;47.988;-4.186;2022-09-13T13:52:56;99222.25;;;28.79
45034;BMP280;30771;47.988;-4.186;2022-09-13T13:55:25;99227.66;;;28.79
45034;BMP280;30771;47.988;-4.186;2022-09-13T14:00:50;99218.00;;;29.04
45034;BMP280;30771;47.988;-4.186;2022-09-13T14:08:30;99222.00;;;28.88
45034;BMP280;30771;47.988;-4.186;2022-09-13T14:13:53;99218.16;;;28.70
45034;BMP280;30771;47.988;-4.186;2022-09-13T14:19:00;99212.69;;;28.66
45034;BMP280;30771;47.988;-4.186;2022-09-13T14:21:28;99211.84;;;28.62
45034;BMP280;30771;47.988;-4.186;2022-09-13T14:26:37;99217.59;;;28.61
45034;BMP280;30771;47.988;-4.186;2022-09-13T14:29:06;99204.16;;;28.64
45034;BMP280;30771;47.988;-4.186;2022-09-13T14:31:32;99203.09;;;28.72
45034;BMP280;30771;47.988;-4.186;2022-09-13T14:33:57;99200.47;;;28.76
45034;BMP280;30771;47.988;-4.186;2022-09-13T14:36:22;99190.94;;;28.82
45034;BMP280;30771;47.988;-4.186;2022-09-13T14:38:48;99187.81;;;28.83
45034;BMP280;30771;47.988;-4.186;2022-09-13T14:41:15;99197.97;;;28.86
45034;BMP280;30771;47.988;-4.186;2022-09-13T14:43:41;99179.03;;;28.90
45034;BMP280;30771;47.988;-4.186;2022-09-13T14:46:08;99177.06;;;28.87
45034;BMP280;30771;47.988;-4.186;2022-09-13T14:48:36;99180.94;;;28.89
45034;BMP280;30771;47.988;-4.186;2022-09-13T14:51:03;99174.50;;;28.94
45034;BMP280;30771;47.988;-4.186;2022-09-13T14:53:30;99166.03;;;28.99
45034;BMP280;30771;47.988;-4.186;2022-09-13T14:56:04;99170.00;;;29.05
45034;BMP280;30771;47.988;-4.186;2022-09-13T14:58:43;99170.31;;;29.00
45034;BMP280;30771;47.988;-4.186;2022-09-13T15:01:11;99172.50;;;28.94
45034;BMP280;30771;47.988;-4.186;2022-09-13T15:03:41;99168.16;;;28.86
45034;BMP280;30771;47.988;-4.186;2022-09-13T15:06:06;99173.78;;;28.78
45034;BMP280;30771;47.988;-4.186;2022-09-13T15:08:44;99165.97;;;28.73
45034;BMP280;30771;47.988;-4.186;2022-09-13T15:11:13;99158.88;;;28.65
45034;BMP280;30771;47.988;-4.186;2022-09-13T15:13:38;99159.88;;;28.57
45034;BMP280;30771;47.988;-4.186;2022-09-13T15:16:22;99162.09;;;28.51
45034;BMP280;30771;47.988;-4.186;2022-09-13T15:18:48;99161.53;;;28.42
45034;BMP280;30771;47.988;-4.186;2022-09-13T15:21:16;99178.00;;;28.34
45034;BMP280;30771;47.988;-4.186;2022-09-13T15:23:42;99169.81;;;28.30
45034;BMP280;30771;47.988;-4.186;2022-09-13T15:26:20;99170.03;;;28.22
45034;BMP280;30771;47.988;-4.186;2022-09-13T15:31:18;99174.72;;;28.06
45034;BMP280;30771;47.988;-4.186;2022-09-13T15:33:43;99173.00;;;27.98
45034;BMP280;30771;47.988;-4.186;2022-09-13T15:36:24;99170.09;;;27.87
45034;BMP280;30771;47.988;-4.186;2022-09-13T15:41:38;99166.13;;;27.66
45034;BMP280;30771;47.988;-4.186;2022-09-13T15:44:05;99172.88;;;27.56
45034;BMP280;30771;47.988;-4.186;2022-09-13T15:46:31;99170.00;;;27.49
45034;BMP280;30771;47.988;-4.186;2022-09-13T15:48:57;99164.41;;;27.42
45034;BMP280;30771;47.988;-4.186;2022-09-13T15:51:23;99162.31;;;27.36
45034;BMP280;30771;47.988;-4.186;2022-09-13T15:53:48;99169.03;;;27.26
45034;BMP280;30771;47.988;-4.186;2022-09-13T15:56:15;99171.06;;;27.14
45034;BMP280;30771;47.988;-4.186;2022-09-13T15:58:41;99173.94;;;27.05
45034;BMP280;30771;47.988;-4.186;2022-09-13T16:01:06;99165.22;;;26.96
45034;BMP280;30771;47.988;-4.186;2022-09-13T16:03:31;99168.63;;;26.93
45034;BMP280;30771;47.988;-4.186;2022-09-13T16:05:56;99168.19;;;26.91
45034;BMP280;30771;47.988;-4.186;2022-09-13T16:08:22;99168.50;;;26.90
45034;BMP280;30771;47.988;-4.186;2022-09-13T16:10:47;99166.53;;;26.87
45034;BMP280;30771;47.988;-4.186;2022-09-13T16:13:12;99169.00;;;26.79
45034;BMP280;30771;47.988;-4.186;2022-09-13T16:15:38;99169.28;;;26.74
45034;BMP280;30771;47.988;-4.186;2022-09-13T16:18:03;99168.84;;;26.73
45034;BMP280;30771;47.988;-4.186;2022-09-13T16:20:28;99169.88;;;26.68
45034;BMP280;30771;47.988;-4.186;2022-09-13T16:22:53;99162.38;;;26.61
45034;BMP280;30771;47.988;-4.186;2022-09-13T16:25:18;99164.97;;;26.58
45034;BMP280;30771;47.988;-4.186;2022-09-13T16:27:44;99168.34;;;26.55
45034;BMP280;30771;47.988;-4.186;2022-09-13T16:30:10;99168.72;;;26.53
45034;BMP280;30771;47.988;-4.186;2022-09-13T16:32:36;99155.22;;;26.53
45034;BMP280;30771;47.988;-4.186;2022-09-13T16:35:01;99152.06;;;26.51
45034;BMP280;30771;47.988;-4.186;2022-09-13T16:37:26;99155.38;;;26.45
45034;BMP280;30771;47.988;-4.186;2022-09-13T16:39:54;99159.44;;;26.39
45034;BMP280;30771;47.988;-4.186;2022-09-13T16:42:19;99163.06;;;26.31
45034;BMP280;30771;47.988;-4.186;2022-09-13T16:44:45;99167.16;;;26.25
45034;BMP280;30771;47.988;-4.186;2022-09-13T16:47:10;99174.25;;;26.17
45034;BMP280;30771;47.988;-4.186;2022-09-13T16:49:35;99170.56;;;26.10
45034;BMP280;30771;47.988;-4.186;2022-09-13T16:52:01;99167.31;;;26.04
45034;BMP280;30771;47.988;-4.186;2022-09-13T16:54:26;99153.28;;;25.99
45034;BMP280;30771;47.988;-4.186;2022-09-13T16:56:52;99163.59;;;25.97
45034;BMP280;30771;47.988;-4.186;2022-09-13T16:59:17;99162.06;;;25.96
45034;BMP280;30771;47.988;-4.186;2022-09-13T17:01:42;99165.41;;;25.93
45034;BMP280;30771;47.988;-4.186;2022-09-13T17:04:09;99166.47;;;25.88
45034;BMP280;30771;47.988;-4.186;2022-09-13T17:06:34;99158.25;;;25.85
45034;BMP280;30771;47.988;-4.186;2022-09-13T17:09:00;99151.84;;;25.77
45034;BMP280;30771;47.988;-4.186;2022-09-13T17:11:26;99150.94;;;25.73
45034;BMP280;30771;47.988;-4.186;2022-09-13T17:13:53;99149.97;;;25.66
45034;BMP280;30771;47.988;-4.186;2022-09-13T17:16:32;99150.41;;;25.56
45034;BMP280;30771;47.988;-4.186;2022-09-13T17:18:59;99149.09;;;25.50
45034;BMP280;30771;47.988;-4.186;2022-09-13T17:21:24;99140.41;;;25.44
45034;BMP280;30771;47.988;-4.186;2022-09-13T17:23:50;99151.88;;;25.41
45034;BMP280;30771;47.988;-4.186;2022-09-13T17:26:15;99145.59;;;25.37
45034;BMP280;30771;47.988;-4.186;2022-09-13T17:28:40;99143.56;;;25.34
45034;BMP280;30771;47.988;-4.186;2022-09-13T17:31:05;99143.44;;;25.31
45034;BMP280;30771;47.988;-4.186;2022-09-13T17:33:31;99146.03;;;25.27
45034;BMP280;30771;47.988;-4.186;2022-09-13T17:35:59;99152.44;;;25.23
45034;BMP280;30771;47.988;-4.186;2022-09-13T17:38:25;99159.59;;;25.19
45034;BMP280;30771;47.988;-4.186;2022-09-13T17:41:24;99154.78;;;25.12
45034;BMP280;30771;47.988;-4.186;2022-09-13T17:43:42;99154.97;;;25.07
45034;BMP280;30771;47.988;-4.186;2022-09-13T17:46:09;99154.84;;;25.04
45034;BMP280;30771;47.988;-4.186;2022-09-13T17:48:34;99153.97;;;25.00
45034;BMP280;30771;47.988;-4.186;2022-09-13T17:51:06;99156.06;;;24.94
45034;BMP280;30771;47.988;-4.186;2022-09-13T17:53:38;99165.16;;;24.90
45034;BMP280;30771;47.988;-4.186;2022-09-13T17:56:04;99167.25;;;24.84
45034;BMP280;30771;47.988;-4.186;2022-09-13T17:58:29;99162.56;;;24.81
45034;BMP280;30771;47.988;-4.186;2022-09-13T18:01:01;99170.84;;;24.76
45034;BMP280;30771;47.988;-4.186;2022-09-13T18:03:27;99169.44;;;24.70
45034;BMP280;30771;47.988;-4.186;2022-09-13T18:05:56;99158.91;;;24.65
45034;BMP280;30771;47.988;-4.186;2022-09-13T18:08:23;99160.25;;;24.59
45034;BMP280;30771;47.988;-4.186;2022-09-13T18:13:13;99164.44;;;24.48
45034;BMP280;30771;47.988;-4.186;2022-09-13T18:15:38;99170.00;;;24.43
45034;BMP280;30771;47.988;-4.186;2022-09-13T18:18:03;99170.22;;;24.38
45034;BMP280;30771;47.988;-4.186;2022-09-13T18:20:28;99171.53;;;24.32
45034;BMP280;30771;47.988;-4.186;2022-09-13T18:22:54;99174.72;;;24.26
45034;BMP280;30771;47.988;-4.186;2022-09-13T18:25:19;99174.47;;;24.19
45034;BMP280;30771;47.988;-4.186;2022-09-13T18:27:44;99178.16;;;24.14
45034;BMP280;30771;47.988;-4.186;2022-09-13T18:30:09;99167.91;;;24.08
45034;BMP280;30771;47.988;-4.186;2022-09-13T18:32:35;99179.66;;;24.03
45034;BMP280;30771;47.988;-4.186;2022-09-13T18:35:00;99182.06;;;23.96
45034;BMP280;30771;47.988;-4.186;2022-09-13T18:37:25;99180.22;;;23.88
45034;BMP280;30771;47.988;-4.186;2022-09-13T18:39:50;99176.47;;;23.80
45034;BMP280;30771;47.988;-4.186;2022-09-13T18:42:15;99176.63;;;23.75
45034;BMP280;30771;47.988;-4.186;2022-09-13T18:44:40;99179.84;;;23.69
45034;BMP280;30771;47.988;-4.186;2022-09-13T18:47:05;99180.34;;;23.62
45034;BMP280;30771;47.988;-4.186;2022-09-13T18:49:31;99179.72;;;23.57
45034;BMP280;30771;47.988;-4.186;2022-09-13T18:51:56;99186.41;;;23.51
45034;BMP280;30771;47.988;-4.186;2022-09-13T18:54:21;99181.22;;;23.46
45034;BMP280;30771;47.988;-4.186;2022-09-13T18:56:46;99186.75;;;23.41
45034;BMP280;30771;47.988;-4.186;2022-09-13T18:59:12;99194.19;;;23.35
45034;BMP280;30771;47.988;-4.186;2022-09-13T19:01:38;99191.84;;;23.34
45034;BMP280;30771;47.988;-4.186;2022-09-13T19:04:13;99192.00;;;23.29
45034;BMP280;30771;47.988;-4.186;2022-09-13T19:06:39;99187.91;;;23.23
45034;BMP280;30771;47.988;-4.186;2022-09-13T19:09:05;99198.78;;;23.18
45034;BMP280;30771;47.988;-4.186;2022-09-13T19:11:32;99198.84;;;23.09
45034;BMP280;30771;47.988;-4.186;2022-09-13T19:13:57;99195.88;;;23.02
45034;BMP280;30771;47.988;-4.186;2022-09-13T19:16:23;99209.00;;;22.95
45034;BMP280;30771;47.988;-4.186;2022-09-13T19:18:48;99201.38;;;22.89
45034;BMP280;30771;47.988;-4.186;2022-09-13T19:21:14;99202.66;;;22.83
45034;BMP280;30771;47.988;-4.186;2022-09-13T19:23:41;99200.44;;;22.76
45034;BMP280;30771;47.988;-4.186;2022-09-13T19:26:07;99189.88;;;22.71
45034;BMP280;30771;47.988;-4.186;2022-09-13T19:28:33;99200.00;;;22.66
45034;BMP280;30771;47.988;-4.186;2022-09-13T19:31:08;99200.44;;;22.59
45034;BMP280;30771;47.988;-4.186;2022-09-13T19:33:35;99206.00;;;22.54
45034;BMP280;30771;47.988;-4.186;2022-09-13T19:36:04;99208.81;;;22.49
45034;BMP280;30771;47.988;-4.186;2022-09-13T19:38:30;99210.84;;;22.44
45034;BMP280;30771;47.988;-4.186;2022-09-13T19:40:56;99204.53;;;22.40
45034;BMP280;30771;47.988;-4.186;2022-09-13T19:43:22;99205.47;;;22.35
45034;BMP280;30771;47.988;-4.186;2022-09-13T19:45:57;99208.78;;;22.32
45034;BMP280;30771;47.988;-4.186;2022-09-13T19:48:22;99212.09;;;22.29
45034;BMP280;30771;47.988;-4.186;2022-09-13T19:50:47;99211.91;;;22.26
45034;BMP280;30771;47.988;-4.186;2022-09-13T19:53:12;99216.66;;;22.20
45034;BMP280;30771;47.988;-4.186;2022-09-13T19:55:41;99216.97;;;22.19
45034;BMP280;30771;47.988;-4.186;2022-09-13T19:58:06;99213.31;;;22.15
45034;BMP280;30771;47.988;-4.186;2022-09-13T20:00:31;99223.06;;;22.11
45034;BMP280;30771;47.988;-4.186;2022-09-13T20:02:57;99224.81;;;22.07
45034;BMP280;30771;47.988;-4.186;2022-09-13T20:05:22;99222.75;;;22.04
45034;BMP280;30771;47.988;-4.186;2022-09-13T20:07:47;99230.63;;;22.00
45034;BMP280;30771;47.988;-4.186;2022-09-13T20:10:12;99240.56;;;22.00
45034;BMP280;30771;47.988;-4.186;2022-09-13T20:12:37;99238.50;;;21.97
45034;BMP280;30771;47.988;-4.186;2022-09-13T20:15:03;99231.88;;;21.94
45034;BMP280;30771;47.988;-4.186;2022-09-13T20:17:28;99234.88;;;21.93
45034;BMP280;30771;47.988;-4.186;2022-09-13T20:19:53;99232.81;;;21.90
45034;BMP280;30771;47.988;-4.186;2022-09-13T20:22:18;99228.81;;;21.87
45034;BMP280;30771;47.988;-4.186;2022-09-13T20:24:43;99237.50;;;21.84
45034;BMP280;30771;47.988;-4.186;2022-09-13T20:27:09;99235.72;;;21.80
45034;BMP280;30771;47.988;-4.186;2022-09-13T20:29:34;99242.19;;;21.79
45034;BMP280;30771;47.988;-4.186;2022-09-13T20:31:59;99235.28;;;21.78
45034;BMP280;30771;47.988;-4.186;2022-09-13T20:34:24;99232.91;;;21.76
45034;BMP280;30771;47.988;-4.186;2022-09-13T20:36:49;99228.97;;;21.74
45034;BMP280;30771;47.988;-4.186;2022-09-13T20:39:15;99236.66;;;21.75
45034;BMP280;30771;47.988;-4.186;2022-09-13T20:41:40;99229.56;;;21.71
45034;BMP280;30771;47.988;-4.186;2022-09-13T20:44:05;99230.97;;;21.68
45034;BMP280;30771;47.988;-4.186;2022-09-13T20:46:30;99221.16;;;21.63
45034;BMP280;30771;47.988;-4.186;2022-09-13T20:48:55;99218.00;;;21.61
45034;BMP280;30771;47.988;-4.186;2022-09-13T20:51:21;99215.16;;;21.58
45034;BMP280;30771;47.988;-4.186;2022-09-13T20:53:47;99216.88;;;21.54
45034;BMP280;30771;47.988;-4.186;2022-09-13T20:56:16;99216.69;;;21.50
45034;BMP280;30771;47.988;-4.186;2022-09-13T20:58:42;99212.25;;;21.46
45034;BMP280;30771;47.988;-4.186;2022-09-13T21:01:09;99208.59;;;21.42
45034;BMP280;30771;47.988;-4.186;2022-09-13T21:03:35;99207.13;;;21.36
45034;BMP280;30771;47.988;-4.186;2022-09-13T21:06:00;99204.00;;;21.34
45034;BMP280;30771;47.988;-4.186;2022-09-13T21:08:25;99198.75;;;21.29
45034;BMP280;30771;47.988;-4.186;2022-09-13T21:10:55;99199.66;;;21.24
45034;BMP280;30771;47.988;-4.186;2022-09-13T21:13:20;99208.59;;;21.20
45034;BMP280;30771;47.988;-4.186;2022-09-13T21:15:45;99215.38;;;21.17
45034;BMP280;30771;47.988;-4.186;2022-09-13T21:18:10;99217.88;;;21.14
45034;BMP280;30771;47.988;-4.186;2022-09-13T21:20:35;99220.66;;;21.09
45034;BMP280;30771;47.988;-4.186;2022-09-13T21:23:01;99209.00;;;21.05
45034;BMP280;30771;47.988;-4.186;2022-09-13T21:25:26;99203.44;;;21.01
45034;BMP280;30771;47.988;-4.186;2022-09-13T21:27:51;99196.31;;;20.97
45034;BMP280;30771;47.988;-4.186;2022-09-13T21:30:16;99199.91;;;20.92
45034;BMP280;30771;47.988;-4.186;2022-09-13T21:32:41;99198.16;;;20.88
45034;BMP280;30771;47.988;-4.186;2022-09-13T21:35:07;99194.81;;;20.82
45034;BMP280;30771;47.988;-4.186;2022-09-13T21:37:32;99208.75;;;20.79
45034;BMP280;30771;47.988;-4.186;2022-09-13T21:39:57;99205.13;;;20.75
45034;BMP280;30771;47.988;-4.186;2022-09-13T21:42:22;99210.00;;;20.73
45034;BMP280;30771;47.988;-4.186;2022-09-13T21:44:48;99204.13;;;20.71
45034;BMP280;30771;47.988;-4.186;2022-09-13T21:47:13;99191.38;;;20.68
45034;BMP280;30771;47.988;-4.186;2022-09-13T21:49:38;99200.81;;;20.66
45034;BMP280;30771;47.988;-4.186;2022-09-13T21:52:03;99197.59;;;20.64
45034;BMP280;30771;47.988;-4.186;2022-09-13T21:54:28;99199.00;;;20.61
45034;BMP280;30771;47.988;-4.186;2022-09-13T21:56:53;99197.75;;;20.59
45034;BMP280;30771;47.988;-4.186;2022-09-13T21:59:19;99195.34;;;20.57
